sensor_id;sensor_type;location;lat;lon;timestamp;pressure;altitude;pressure_sealevel;temperature;humidity
33697;BME280;20031;43.416;23.232;2022-08-07T00:01:25;99584.50;;;25.89;55.34
33697;BME280;20031;43.416;23.232;2022-08-07T00:03:51;99586.09;;;25.85;55.59
33697;BME280;20031;43.416;23.232;2022-08-07T00:06:16;99585.03;;;25.81;56.35
33697;BME280;20031;43.416;23.232;2022-08-07T00:08:42;99584.75;;;25.78;56.57
33697;BME280;20031;43.416;23.232;2022-08-07T00:11:07;99584.22;;;25.76;57.03
33697;BME280;20031;43.416;23.232;2022-08-07T00:13:33;99586.34;;;25.69;56.71
33697;BME280;20031;43.416;23.232;2022-08-07T00:16:02;99596.19;;;25.59;57.19
33697;BME280;20031;43.416;23.232;2022-08-07T00:18:28;99600.19;;;25.56;57.21
33697;BME280;20031;43.416;23.232;2022-08-07T00:20:56;99605.00;;;25.54;57.44
33697;BME280;20031;43.416;23.232;2022-08-07T00:23:22;99608.19;;;25.46;57.02
33697;BME280;20031;43.416;23.232;2022-08-07T00:25:48;99608.19;;;25.46;57.07
33697;BME280;20031;43.416;23.232;2022-08-07T00:28:14;99616.44;;;25.45;57.83
33697;BME280;20031;43.416;23.232;2022-08-07T00:30:39;99606.31;;;25.47;57.33
33697;BME280;20031;43.416;23.232;2022-08-07T00:33:05;99620.16;;;25.44;57.11
33697;BME280;20031;43.416;23.232;2022-08-07T00:35:30;99620.16;;;25.44;57.26
33697;BME280;20031;43.416;23.232;2022-08-07T00:37:57;99623.66;;;25.49;56.70
33697;BME280;20031;43.416;23.232;2022-08-07T00:40:23;99625.25;;;25.40;57.16
33697;BME280;20031;43.416;23.232;2022-08-07T00:42:48;99629.00;;;25.44;57.09
33697;BME280;20031;43.416;23.232;2022-08-07T00:45:14;99641.81;;;25.47;56.90
33697;BME280;20031;43.416;23.232;2022-08-07T00:47:39;99645.78;;;25.45;56.43
33697;BME280;20031;43.416;23.232;2022-08-07T00:50:05;99649.50;;;25.39;56.92
33697;BME280;20031;43.416;23.232;2022-08-07T00:52:31;99658.81;;;25.21;56.83
33697;BME280;20031;43.416;23.232;2022-08-07T00:54:57;99656.06;;;25.07;57.39
33697;BME280;20031;43.416;23.232;2022-08-07T00:57:24;99652.81;;;24.95;57.74
33697;BME280;20031;43.416;23.232;2022-08-07T00:59:50;99649.03;;;24.86;57.70
33697;BME280;20031;43.416;23.232;2022-08-07T01:02:16;99658.03;;;24.75;57.56
33697;BME280;20031;43.416;23.232;2022-08-07T01:04:42;99664.72;;;24.82;58.19
33697;BME280;20031;43.416;23.232;2022-08-07T01:07:08;99662.31;;;24.81;57.96
33697;BME280;20031;43.416;23.232;2022-08-07T01:09:33;99667.13;;;24.79;59.00
33697;BME280;20031;43.416;23.232;2022-08-07T01:11:59;99657.53;;;24.78;59.18
33697;BME280;20031;43.416;23.232;2022-08-07T01:14:25;99658.09;;;24.85;59.42
33697;BME280;20031;43.416;23.232;2022-08-07T01:16:52;99666.41;;;24.98;59.11
33697;BME280;20031;43.416;23.232;2022-08-07T01:19:19;99663.00;;;25.08;58.68
33697;BME280;20031;43.416;23.232;2022-08-07T01:21:49;99668.09;;;25.14;58.03
33697;BME280;20031;43.416;23.232;2022-08-07T01:24:15;99658.81;;;25.21;57.65
33697;BME280;20031;43.416;23.232;2022-08-07T01:26:42;99667.63;;;25.27;57.18
33697;BME280;20031;43.416;23.232;2022-08-07T01:29:08;99663.63;;;25.34;56.41
33697;BME280;20031;43.416;23.232;2022-08-07T01:31:36;99659.38;;;25.43;56.23
33697;BME280;20031;43.416;23.232;2022-08-07T01:34:02;99665.81;;;25.47;56.04
33697;BME280;20031;43.416;23.232;2022-08-07T01:36:28;99661.00;;;25.44;55.74
33697;BME280;20031;43.416;23.232;2022-08-07T01:38:55;99662.06;;;25.38;55.84
33697;BME280;20031;43.416;23.232;2022-08-07T01:41:21;99660.19;;;25.39;56.16
33697;BME280;20031;43.416;23.232;2022-08-07T01:43:48;99652.97;;;25.39;55.63
33697;BME280;20031;43.416;23.232;2022-08-07T01:46:15;99652.44;;;25.37;55.40
33697;BME280;20031;43.416;23.232;2022-08-07T01:48:45;99650.00;;;25.31;56.50
33697;BME280;20031;43.416;23.232;2022-08-07T01:51:19;99652.69;;;25.31;56.33
33697;BME280;20031;43.416;23.232;2022-08-07T01:53:47;99662.84;;;25.44;56.53
33697;BME280;20031;43.416;23.232;2022-08-07T01:56:16;99662.06;;;25.53;56.19
33697;BME280;20031;43.416;23.232;2022-08-07T01:58:52;99657.28;;;25.50;56.74
33697;BME280;20031;43.416;23.232;2022-08-07T02:01:24;99663.66;;;25.44;56.54
33697;BME280;20031;43.416;23.232;2022-08-07T02:04:08;99660.97;;;25.34;56.88
33697;BME280;20031;43.416;23.232;2022-08-07T02:06:35;99663.13;;;25.37;57.79
33697;BME280;20031;43.416;23.232;2022-08-07T02:09:05;99668.47;;;25.47;57.13
33697;BME280;20031;43.416;23.232;2022-08-07T02:11:38;99663.16;;;25.57;57.33
33697;BME280;20031;43.416;23.232;2022-08-07T02:14:06;99663.69;;;25.59;57.54
33697;BME280;20031;43.416;23.232;2022-08-07T02:16:34;99672.78;;;25.63;57.57
33697;BME280;20031;43.416;23.232;2022-08-07T02:19:06;99657.81;;;25.62;57.19
33697;BME280;20031;43.416;23.232;2022-08-07T02:21:34;99662.16;;;25.68;57.20
33697;BME280;20031;43.416;23.232;2022-08-07T02:24:03;99659.22;;;25.74;57.13
33697;BME280;20031;43.416;23.232;2022-08-07T02:26:29;99663.22;;;25.77;56.85
33697;BME280;20031;43.416;23.232;2022-08-07T02:28:56;99660.53;;;25.72;56.80
33697;BME280;20031;43.416;23.232;2022-08-07T02:31:22;99659.47;;;25.73;56.49
33697;BME280;20031;43.416;23.232;2022-08-07T02:33:49;99663.75;;;25.79;56.79
33697;BME280;20031;43.416;23.232;2022-08-07T02:36:16;99659.50;;;25.78;56.02
33697;BME280;20031;43.416;23.232;2022-08-07T02:38:43;99653.06;;;25.74;56.38
33697;BME280;20031;43.416;23.232;2022-08-07T02:41:11;99657.59;;;25.69;56.32
33697;BME280;20031;43.416;23.232;2022-08-07T02:43:38;99653.59;;;25.66;56.30
33697;BME280;20031;43.416;23.232;2022-08-07T02:46:06;99646.41;;;25.67;56.24
33697;BME280;20031;43.416;23.232;2022-08-07T02:48:33;99647.19;;;25.67;56.01
33697;BME280;20031;43.416;23.232;2022-08-07T02:51:04;99647.47;;;25.70;56.50
33697;BME280;20031;43.416;23.232;2022-08-07T02:53:33;99644.81;;;25.75;56.07
33697;BME280;20031;43.416;23.232;2022-08-07T02:56:01;99645.06;;;25.79;56.20
33697;BME280;20031;43.416;23.232;2022-08-07T02:58:30;99636.53;;;25.87;55.65
33697;BME280;20031;43.416;23.232;2022-08-07T03:00:56;99634.69;;;25.92;55.85
33697;BME280;20031;43.416;23.232;2022-08-07T03:03:25;99641.31;;;25.95;55.57
33697;BME280;20031;43.416;23.232;2022-08-07T03:05:53;99629.06;;;25.94;55.90
33697;BME280;20031;43.416;23.232;2022-08-07T03:08:19;99632.28;;;25.91;55.47
33697;BME280;20031;43.416;23.232;2022-08-07T03:10:45;99633.88;;;25.87;55.98
33697;BME280;20031;43.416;23.232;2022-08-07T03:13:13;99642.94;;;25.86;56.47
33697;BME280;20031;43.416;23.232;2022-08-07T03:15:39;99646.94;;;25.83;56.32
33697;BME280;20031;43.416;23.232;2022-08-07T03:18:05;99654.41;;;25.71;57.75
33697;BME280;20031;43.416;23.232;2022-08-07T03:20:31;99664.22;;;25.51;58.28
33697;BME280;20031;43.416;23.232;2022-08-07T03:22:57;99654.81;;;25.34;59.14
33697;BME280;20031;43.416;23.232;2022-08-07T03:25:25;99652.41;;;25.27;59.72
33697;BME280;20031;43.416;23.232;2022-08-07T03:27:52;99652.94;;;25.24;60.25
33697;BME280;20031;43.416;23.232;2022-08-07T03:30:18;99657.19;;;25.20;60.64
33697;BME280;20031;43.416;23.232;2022-08-07T03:32:46;99669.44;;;25.12;60.19
33697;BME280;20031;43.416;23.232;2022-08-07T03:35:15;99680.06;;;25.07;60.46
33697;BME280;20031;43.416;23.232;2022-08-07T03:37:43;99682.47;;;25.03;60.39
33697;BME280;20031;43.416;23.232;2022-08-07T03:40:10;99695.53;;;25.05;60.46
33697;BME280;20031;43.416;23.232;2022-08-07T03:42:36;99691.22;;;24.99;60.37
33697;BME280;20031;43.416;23.232;2022-08-07T03:45:03;99693.06;;;24.98;60.06
33697;BME280;20031;43.416;23.232;2022-08-07T03:47:29;99683.47;;;24.97;60.12
33697;BME280;20031;43.416;23.232;2022-08-07T03:49:58;99669.78;;;24.79;60.31
33697;BME280;20031;43.416;23.232;2022-08-07T03:52:27;99655.38;;;24.80;60.75
33697;BME280;20031;43.416;23.232;2022-08-07T03:54:56;99658.81;;;24.75;60.49
33697;BME280;20031;43.416;23.232;2022-08-07T03:57:24;99661.53;;;24.80;60.24
33697;BME280;20031;43.416;23.232;2022-08-07T03:59:50;99678.06;;;24.82;60.29
33697;BME280;20031;43.416;23.232;2022-08-07T04:02:16;99682.34;;;24.88;59.87
33697;BME280;20031;43.416;23.232;2022-08-07T04:04:42;99689.81;;;24.91;59.96
33697;BME280;20031;43.416;23.232;2022-08-07T04:07:07;99693.63;;;25.00;59.55
33697;BME280;20031;43.416;23.232;2022-08-07T04:09:34;99704.31;;;25.05;59.20
33697;BME280;20031;43.416;23.232;2022-08-07T04:12:00;99700.59;;;25.06;59.08
33697;BME280;20031;43.416;23.232;2022-08-07T04:14:26;99700.88;;;25.05;58.92
33697;BME280;20031;43.416;23.232;2022-08-07T04:16:52;99700.28;;;25.03;58.84
33697;BME280;20031;43.416;23.232;2022-08-07T04:19:18;99710.22;;;25.07;58.88
33697;BME280;20031;43.416;23.232;2022-08-07T04:21:43;99720.34;;;25.10;58.61
33697;BME280;20031;43.416;23.232;2022-08-07T04:24:09;99730.50;;;25.13;58.69
33697;BME280;20031;43.416;23.232;2022-08-07T04:26:39;99730.75;;;25.17;58.30
33697;BME280;20031;43.416;23.232;2022-08-07T04:29:06;99738.81;;;25.21;58.49
33697;BME280;20031;43.416;23.232;2022-08-07T04:31:36;99736.69;;;25.28;58.83
33697;BME280;20031;43.416;23.232;2022-08-07T04:34:03;99739.41;;;25.38;58.37
33697;BME280;20031;43.416;23.232;2022-08-07T04:36:29;99734.91;;;25.49;57.82
33697;BME280;20031;43.416;23.232;2022-08-07T04:38:54;99751.47;;;25.56;57.68
33697;BME280;20031;43.416;23.232;2022-08-07T04:41:20;99746.13;;;25.56;57.12
33697;BME280;20031;43.416;23.232;2022-08-07T04:43:46;99756.50;;;25.47;56.70
33697;BME280;20031;43.416;23.232;2022-08-07T04:48:54;99757.28;;;25.43;57.26
33697;BME280;20031;43.416;23.232;2022-08-07T04:51:27;99757.56;;;25.46;57.35
33697;BME280;20031;43.416;23.232;2022-08-07T04:54:19;99762.41;;;25.59;56.31
33697;BME280;20031;43.416;23.232;2022-08-07T04:56:51;99764.81;;;25.61;56.70
33697;BME280;20031;43.416;23.232;2022-08-07T05:02:25;99767.28;;;25.72;56.46
33697;BME280;20031;43.416;23.232;2022-08-07T05:04:58;99766.00;;;25.79;56.43
33697;BME280;20031;43.416;23.232;2022-08-07T05:07:39;99767.59;;;25.90;55.98
33697;BME280;20031;43.416;23.232;2022-08-07T05:10:23;99761.72;;;25.88;56.63
33697;BME280;20031;43.416;23.232;2022-08-07T05:13:08;99761.44;;;25.85;58.37
33697;BME280;20031;43.416;23.232;2022-08-07T05:15:38;99758.00;;;25.94;58.52
33697;BME280;20031;43.416;23.232;2022-08-07T05:18:11;99770.03;;;26.02;58.94
33697;BME280;20031;43.416;23.232;2022-08-07T05:20:41;99777.78;;;26.13;58.74
33697;BME280;20031;43.416;23.232;2022-08-07T05:23:31;99783.94;;;26.19;59.25
33697;BME280;20031;43.416;23.232;2022-08-07T05:25:59;99797.84;;;26.25;58.31
33697;BME280;20031;43.416;23.232;2022-08-07T05:28:26;99799.47;;;26.31;58.37
33697;BME280;20031;43.416;23.232;2022-08-07T05:30:54;99793.88;;;26.33;57.20
33697;BME280;20031;43.416;23.232;2022-08-07T05:33:22;99800.56;;;26.35;57.60
33697;BME280;20031;43.416;23.232;2022-08-07T05:35:49;99795.50;;;26.49;57.18
33697;BME280;20031;43.416;23.232;2022-08-07T05:38:16;99802.19;;;26.46;56.58
33697;BME280;20031;43.416;23.232;2022-08-07T05:40:42;99799.78;;;26.55;56.58
33697;BME280;20031;43.416;23.232;2022-08-07T05:43:08;99817.41;;;26.71;56.58
33697;BME280;20031;43.416;23.232;2022-08-07T05:45:33;99827.28;;;26.85;55.98
33697;BME280;20031;43.416;23.232;2022-08-07T05:47:59;99835.88;;;26.92;55.91
33697;BME280;20031;43.416;23.232;2022-08-07T05:50:26;99835.88;;;26.92;56.39
33697;BME280;20031;43.416;23.232;2022-08-07T05:52:52;99837.47;;;26.98;55.48
33697;BME280;20031;43.416;23.232;2022-08-07T05:55:18;99832.66;;;26.90;55.58
33697;BME280;20031;43.416;23.232;2022-08-07T05:57:45;99835.31;;;26.90;55.45
33697;BME280;20031;43.416;23.232;2022-08-07T06:00:12;99834.78;;;27.13;55.52
33697;BME280;20031;43.416;23.232;2022-08-07T06:02:39;99832.88;;;27.23;55.24
33697;BME280;20031;43.416;23.232;2022-08-07T06:05:07;99840.09;;;27.27;55.32
33697;BME280;20031;43.416;23.232;2022-08-07T06:07:34;99834.22;;;27.26;55.00
33697;BME280;20031;43.416;23.232;2022-08-07T06:10:01;99835.56;;;27.23;55.18
33697;BME280;20031;43.416;23.232;2022-08-07T06:12:27;99840.94;;;27.18;55.04
33697;BME280;20031;43.416;23.232;2022-08-07T06:14:52;99835.84;;;27.12;54.96
33697;BME280;20031;43.416;23.232;2022-08-07T06:17:19;99831.00;;;27.14;54.89
33697;BME280;20031;43.416;23.232;2022-08-07T06:19:46;99835.56;;;27.23;55.25
33697;BME280;20031;43.416;23.232;2022-08-07T06:22:13;99831.50;;;27.30;54.87
33697;BME280;20031;43.416;23.232;2022-08-07T06:24:38;99837.16;;;27.24;54.55
33697;BME280;20031;43.416;23.232;2022-08-07T06:27:04;99829.13;;;27.29;54.32
33697;BME280;20031;43.416;23.232;2022-08-07T06:29:30;99835.25;;;27.39;54.30
33697;BME280;20031;43.416;23.232;2022-08-07T06:31:56;99834.13;;;27.65;54.31
33697;BME280;20031;43.416;23.232;2022-08-07T06:34:25;99839.56;;;28.03;53.30
33697;BME280;20031;43.416;23.232;2022-08-07T06:36:51;99840.44;;;28.37;52.54
33697;BME280;20031;43.416;23.232;2022-08-07T06:39:17;99840.09;;;28.48;51.72
33697;BME280;20031;43.416;23.232;2022-08-07T06:41:46;99844.25;;;28.74;51.24
33697;BME280;20031;43.416;23.232;2022-08-07T06:44:13;99834.50;;;28.83;50.76
33697;BME280;20031;43.416;23.232;2022-08-07T06:46:40;99840.66;;;29.12;49.95
33697;BME280;20031;43.416;23.232;2022-08-07T06:49:06;99837.03;;;29.31;50.09
33697;BME280;20031;43.416;23.232;2022-08-07T06:51:33;99834.00;;;30.02;48.95
33697;BME280;20031;43.416;23.232;2022-08-07T06:54:02;99843.25;;;30.33;47.95
33697;BME280;20031;43.416;23.232;2022-08-07T06:56:29;99840.50;;;30.38;47.72
33697;BME280;20031;43.416;23.232;2022-08-07T06:59:17;99842.56;;;30.46;47.30
33697;BME280;20031;43.416;23.232;2022-08-07T07:01:44;99839.13;;;30.41;47.71
33697;BME280;20031;43.416;23.232;2022-08-07T07:04:11;99849.81;;;30.27;46.68
33697;BME280;20031;43.416;23.232;2022-08-07T07:06:37;99845.78;;;30.25;47.55
33697;BME280;20031;43.416;23.232;2022-08-07T07:09:20;99846.09;;;30.23;47.43
33697;BME280;20031;43.416;23.232;2022-08-07T07:17:16;99855.06;;;30.55;46.89
33697;BME280;20031;43.416;23.232;2022-08-07T07:19:51;99852.91;;;30.52;46.71
33697;BME280;20031;43.416;23.232;2022-08-07T07:22:18;99846.13;;;30.42;47.16
33697;BME280;20031;43.416;23.232;2022-08-07T07:24:45;99857.78;;;30.32;46.77
33697;BME280;20031;43.416;23.232;2022-08-07T07:27:13;99855.63;;;30.34;46.73
33697;BME280;20031;43.416;23.232;2022-08-07T07:29:44;99847.56;;;30.34;46.27
33697;BME280;20031;43.416;23.232;2022-08-07T07:32:13;99854.69;;;30.43;46.58
33697;BME280;20031;43.416;23.232;2022-08-07T07:34:45;99853.78;;;30.66;46.99
33697;BME280;20031;43.416;23.232;2022-08-07T07:37:12;99857.38;;;31.39;45.59
33697;BME280;20031;43.416;23.232;2022-08-07T07:39:40;99851.53;;;31.63;44.31
33697;BME280;20031;43.416;23.232;2022-08-07T07:42:08;99861.63;;;31.98;43.27
33697;BME280;20031;43.416;23.232;2022-08-07T07:44:38;99860.00;;;32.10;42.89
33697;BME280;20031;43.416;23.232;2022-08-07T07:47:07;99859.03;;;32.42;42.21
33697;BME280;20031;43.416;23.232;2022-08-07T07:49:34;99856.72;;;32.49;42.21
33697;BME280;20031;43.416;23.232;2022-08-07T07:52:02;99857.66;;;32.31;42.17
33697;BME280;20031;43.416;23.232;2022-08-07T07:54:29;99853.41;;;31.90;42.24
33697;BME280;20031;43.416;23.232;2022-08-07T07:56:56;99855.63;;;31.61;43.14
33697;BME280;20031;43.416;23.232;2022-08-07T07:59:24;99860.63;;;31.67;43.30
33697;BME280;20031;43.416;23.232;2022-08-07T08:01:50;99851.03;;;31.61;42.94
33697;BME280;20031;43.416;23.232;2022-08-07T08:04:17;99851.13;;;31.70;43.11
33697;BME280;20031;43.416;23.232;2022-08-07T08:06:45;99853.03;;;31.96;42.64
33697;BME280;20031;43.416;23.232;2022-08-07T08:09:13;99852.03;;;32.05;43.09
33697;BME280;20031;43.416;23.232;2022-08-07T08:11:39;99853.16;;;32.26;42.59
33697;BME280;20031;43.416;23.232;2022-08-07T08:14:05;99855.25;;;32.29;41.78
33697;BME280;20031;43.416;23.232;2022-08-07T08:16:37;99856.56;;;32.32;41.83
33697;BME280;20031;43.416;23.232;2022-08-07T08:19:06;99848.50;;;32.53;41.13
33697;BME280;20031;43.416;23.232;2022-08-07T08:21:33;99854.78;;;32.84;41.17
33697;BME280;20031;43.416;23.232;2022-08-07T08:24:19;99853.72;;;32.72;41.15
33697;BME280;20031;43.416;23.232;2022-08-07T08:27:05;99862.00;;;32.53;41.02
33697;BME280;20031;43.416;23.232;2022-08-07T08:29:35;99859.19;;;32.45;41.77
33697;BME280;20031;43.416;23.232;2022-08-07T08:32:05;99859.94;;;32.72;41.22
33697;BME280;20031;43.416;23.232;2022-08-07T08:34:34;99858.31;;;32.93;41.57
33697;BME280;20031;43.416;23.232;2022-08-07T08:37:03;99856.69;;;33.05;41.31
33697;BME280;20031;43.416;23.232;2022-08-07T08:39:30;99850.78;;;33.34;40.76
33697;BME280;20031;43.416;23.232;2022-08-07T08:42:03;99852.81;;;33.50;39.52
33697;BME280;20031;43.416;23.232;2022-08-07T08:44:39;99852.69;;;33.63;39.51
33697;BME280;20031;43.416;23.232;2022-08-07T08:47:07;99858.31;;;33.84;39.55
33697;BME280;20031;43.416;23.232;2022-08-07T08:52:19;99855.63;;;32.93;40.50
33697;BME280;20031;43.416;23.232;2022-08-07T09:00:29;99842.38;;;33.74;38.58
33697;BME280;20031;43.416;23.232;2022-08-07T09:03:18;99840.56;;;34.00;38.29
33697;BME280;20031;43.416;23.232;2022-08-07T09:05:57;99834.06;;;34.17;38.00
33697;BME280;20031;43.416;23.232;2022-08-07T09:11:05;99826.28;;;34.58;37.29
33697;BME280;20031;43.416;23.232;2022-08-07T09:13:55;99830.84;;;35.00;37.46
33697;BME280;20031;43.416;23.232;2022-08-07T09:20:17;99837.56;;;34.77;36.76
33697;BME280;20031;43.416;23.232;2022-08-07T09:25:24;99824.09;;;35.22;36.98
33697;BME280;20031;43.416;23.232;2022-08-07T09:27:54;99812.97;;;35.61;35.97
33697;BME280;20031;43.416;23.232;2022-08-07T09:30:23;99823.59;;;35.29;36.09
33697;BME280;20031;43.416;23.232;2022-08-07T09:33:11;99823.25;;;34.76;36.72
33697;BME280;20031;43.416;23.232;2022-08-07T09:39:14;99823.03;;;33.42;38.85
33697;BME280;20031;43.416;23.232;2022-08-07T09:41:47;99820.19;;;33.47;38.91
33697;BME280;20031;43.416;23.232;2022-08-07T09:54:56;99806.59;;;33.68;38.44
33697;BME280;20031;43.416;23.232;2022-08-07T09:57:37;99805.69;;;33.81;38.61
33697;BME280;20031;43.416;23.232;2022-08-07T10:00:12;99803.59;;;33.87;39.12
33697;BME280;20031;43.416;23.232;2022-08-07T10:14:51;99792.16;;;35.36;35.45
33697;BME280;20031;43.416;23.232;2022-08-07T10:30:38;99784.63;;;36.20;33.66
33697;BME280;20031;43.416;23.232;2022-08-07T10:39:13;99770.75;;;37.41;32.72
33697;BME280;20031;43.416;23.232;2022-08-07T10:41:48;99756.78;;;37.79;31.35
33697;BME280;20031;43.416;23.232;2022-08-07T10:44:23;99762.16;;;38.02;32.36
33697;BME280;20031;43.416;23.232;2022-08-07T10:47:04;99757.59;;;37.55;31.76
33697;BME280;20031;43.416;23.232;2022-08-07T10:49:46;99759.63;;;37.58;31.80
33697;BME280;20031;43.416;23.232;2022-08-07T10:57:47;99755.78;;;37.47;30.97
33697;BME280;20031;43.416;23.232;2022-08-07T11:00:15;99752.47;;;37.06;32.41
33697;BME280;20031;43.416;23.232;2022-08-07T11:10:41;99740.53;;;38.60;29.99
33697;BME280;20031;43.416;23.232;2022-08-07T11:15:41;99723.72;;;38.31;29.65
33697;BME280;20031;43.416;23.232;2022-08-07T11:18:16;99721.19;;;37.72;30.38
33697;BME280;20031;43.416;23.232;2022-08-07T11:24:08;99714.94;;;38.65;29.00
33697;BME280;20031;43.416;23.232;2022-08-07T11:29:19;99708.03;;;38.13;29.40
33697;BME280;20031;43.416;23.232;2022-08-07T11:31:52;99706.03;;;38.10;29.54
33697;BME280;20031;43.416;23.232;2022-08-07T11:34:41;99704.00;;;37.44;30.01
33697;BME280;20031;43.416;23.232;2022-08-07T11:40:09;99701.41;;;36.44;31.55
33697;BME280;20031;43.416;23.232;2022-08-07T11:43:03;99694.16;;;36.16;32.44
33697;BME280;20031;43.416;23.232;2022-08-07T11:57:33;99688.19;;;37.73;28.95
33697;BME280;20031;43.416;23.232;2022-08-07T12:00:16;99676.50;;;37.22;29.44
33697;BME280;20031;43.416;23.232;2022-08-07T12:08:43;99669.41;;;36.61;30.73
33697;BME280;20031;43.416;23.232;2022-08-07T12:11:19;99665.72;;;37.13;30.40
33697;BME280;20031;43.416;23.232;2022-08-07T12:13:54;99668.88;;;37.63;29.67
33697;BME280;20031;43.416;23.232;2022-08-07T12:16:34;99663.56;;;38.21;28.68
33697;BME280;20031;43.416;23.232;2022-08-07T12:26:52;99645.78;;;38.54;27.96
33697;BME280;20031;43.416;23.232;2022-08-07T12:29:34;99648.31;;;39.08;27.46
33697;BME280;20031;43.416;23.232;2022-08-07T12:32:22;99649.22;;;39.31;27.34
33697;BME280;20031;43.416;23.232;2022-08-07T12:34:52;99650.50;;;39.18;26.92
33697;BME280;20031;43.416;23.232;2022-08-07T12:37:19;99642.03;;;39.23;26.94
33697;BME280;20031;43.416;23.232;2022-08-07T12:39:47;99639.88;;;39.32;25.82
33697;BME280;20031;43.416;23.232;2022-08-07T12:42:17;99642.31;;;39.52;26.43
33697;BME280;20031;43.416;23.232;2022-08-07T12:44:46;99627.63;;;39.76;25.88
33697;BME280;20031;43.416;23.232;2022-08-07T12:47:33;99635.94;;;39.64;25.94
33697;BME280;20031;43.416;23.232;2022-08-07T12:50:11;99628.59;;;39.15;25.32
33697;BME280;20031;43.416;23.232;2022-08-07T12:52:57;99626.53;;;38.93;26.25
33697;BME280;20031;43.416;23.232;2022-08-07T12:55:42;99625.09;;;38.84;26.48
33697;BME280;20031;43.416;23.232;2022-08-07T12:58:14;99620.00;;;38.67;27.15
33697;BME280;20031;43.416;23.232;2022-08-07T13:06:25;99612.84;;;37.89;27.28
33697;BME280;20031;43.416;23.232;2022-08-07T13:09:26;99619.03;;;37.47;28.09
33697;BME280;20031;43.416;23.232;2022-08-07T13:17:26;99608.78;;;37.56;29.47
33697;BME280;20031;43.416;23.232;2022-08-07T13:22:51;99601.19;;;37.10;30.60
33697;BME280;20031;43.416;23.232;2022-08-07T13:25:29;99592.25;;;36.98;29.97
33697;BME280;20031;43.416;23.232;2022-08-07T13:28:03;99590.91;;;36.80;30.25
33697;BME280;20031;43.416;23.232;2022-08-07T13:30:30;99595.53;;;36.68;30.37
33697;BME280;20031;43.416;23.232;2022-08-07T13:33:25;99590.31;;;36.98;29.93
33697;BME280;20031;43.416;23.232;2022-08-07T13:35:56;99583.25;;;37.60;29.48
33697;BME280;20031;43.416;23.232;2022-08-07T13:38:33;99588.97;;;38.25;28.42
33697;BME280;20031;43.416;23.232;2022-08-07T13:41:08;99580.56;;;38.61;27.64
33697;BME280;20031;43.416;23.232;2022-08-07T13:43:41;99582.38;;;38.11;28.13
33697;BME280;20031;43.416;23.232;2022-08-07T13:46:09;99580.41;;;37.41;29.14
33697;BME280;20031;43.416;23.232;2022-08-07T13:48:36;99583.50;;;36.69;30.47
33697;BME280;20031;43.416;23.232;2022-08-07T13:51:04;99583.00;;;36.19;31.54
33697;BME280;20031;43.416;23.232;2022-08-07T13:53:37;99589.63;;;35.66;31.88
33697;BME280;20031;43.416;23.232;2022-08-07T13:56:05;99603.03;;;35.21;32.78
33697;BME280;20031;43.416;23.232;2022-08-07T13:58:37;99640.84;;;34.81;33.48
33697;BME280;20031;43.416;23.232;2022-08-07T14:01:23;99683.53;;;33.88;36.42
33697;BME280;20031;43.416;23.232;2022-08-07T14:03:51;99692.00;;;32.53;42.87
33697;BME280;20031;43.416;23.232;2022-08-07T14:06:19;99681.84;;;31.23;49.79
33697;BME280;20031;43.416;23.232;2022-08-07T14:08:48;99739.19;;;29.60;52.63
33697;BME280;20031;43.416;23.232;2022-08-07T14:11:17;99752.72;;;27.66;56.40
33697;BME280;20031;43.416;23.232;2022-08-07T14:13:53;99772.16;;;24.52;66.26
33697;BME280;20031;43.416;23.232;2022-08-07T14:16:24;99822.75;;;23.99;72.04
33697;BME280;20031;43.416;23.232;2022-08-07T14:18:52;99830.88;;;23.88;75.46
33697;BME280;20031;43.416;23.232;2022-08-07T14:21:48;99822.47;;;23.74;77.36
33697;BME280;20031;43.416;23.232;2022-08-07T14:24:21;99821.72;;;23.79;79.18
33697;BME280;20031;43.416;23.232;2022-08-07T14:26:54;99811.00;;;23.95;79.17
33697;BME280;20031;43.416;23.232;2022-08-07T14:29:29;99799.97;;;24.08;78.85
33697;BME280;20031;43.416;23.232;2022-08-07T14:31:59;99796.91;;;24.21;78.33
33697;BME280;20031;43.416;23.232;2022-08-07T14:34:28;99803.56;;;24.23;76.62
33697;BME280;20031;43.416;23.232;2022-08-07T14:36:55;99796.13;;;24.52;76.88
33697;BME280;20031;43.416;23.232;2022-08-07T14:39:22;99791.28;;;24.80;75.79
33697;BME280;20031;43.416;23.232;2022-08-07T14:41:51;99785.13;;;25.06;75.62
33697;BME280;20031;43.416;23.232;2022-08-07T14:44:18;99782.78;;;25.24;74.94
33697;BME280;20031;43.416;23.232;2022-08-07T14:46:46;99787.91;;;25.30;73.28
33697;BME280;20031;43.416;23.232;2022-08-07T14:49:14;99778.28;;;25.29;72.22
33697;BME280;20031;43.416;23.232;2022-08-07T14:51:41;99769.53;;;25.44;72.22
33697;BME280;20031;43.416;23.232;2022-08-07T14:54:08;99772.25;;;25.49;71.16
33697;BME280;20031;43.416;23.232;2022-08-07T14:56:39;99773.88;;;25.55;70.90
33697;BME280;20031;43.416;23.232;2022-08-07T14:59:08;99773.38;;;25.63;70.08
33697;BME280;20031;43.416;23.232;2022-08-07T15:01:38;99759.28;;;25.67;69.70
33697;BME280;20031;43.416;23.232;2022-08-07T15:04:06;99756.06;;;25.75;69.58
33697;BME280;20031;43.416;23.232;2022-08-07T15:06:34;99756.41;;;25.88;71.86
33697;BME280;20031;43.416;23.232;2022-08-07T15:09:10;99751.84;;;25.89;72.48
33697;BME280;20031;43.416;23.232;2022-08-07T15:12:00;99746.28;;;25.95;72.02
33697;BME280;20031;43.416;23.232;2022-08-07T15:14:29;99751.09;;;26.08;72.51
33697;BME280;20031;43.416;23.232;2022-08-07T15:16:59;99754.00;;;26.02;71.42
33697;BME280;20031;43.416;23.232;2022-08-07T15:19:36;99749.19;;;25.94;71.77
33697;BME280;20031;43.416;23.232;2022-08-07T15:22:03;99744.41;;;25.91;72.45
33697;BME280;20031;43.416;23.232;2022-08-07T15:24:37;99744.38;;;25.86;72.63